Eastsound, Washington
Current Conditions -  °F | °C
As of 8:15 AM on Thursday 23 Oct 2014 (Local Time) from KORS Reporting Station
Light Rain Light Rain  
Wind Chill: 54°   Ceiling: 1400
Heat Index: 54°   Visibility: 9mi
Dew Point: 50°   Wind: 7mph
Humidity: 88%   Direction: 180°S
Pressure: 29.67"   Gusts: NA
Location:  48.7°N, 122.91°W
Report Text: KORS 231515Z AUTO 18006KT 9SM -RA BKN014 12/10 A2967 RMK AO2
Loading
Personal Weather Stations






























Interactive Weather Map
Tropical Storm Tracking
New forecast layout! Learn more

10-Day Weather Forecast

Advertisements
Track Severe Weather on mobile